createdAt,value
2023-10-07T00:01:52.024Z,168325.31
2023-10-07T00:11:55.787Z,168309.38
2023-10-07T00:22:00.777Z,168289.44
2023-10-07T00:32:05.925Z,168300.03
2023-10-07T00:42:11.324Z,168293.41
2023-10-07T00:52:28.820Z,168285.44
2023-10-07T01:02:34.762Z,168281.47
2023-10-07T01:12:40.176Z,168274.78
2023-10-07T01:23:04.064Z,168266.84
2023-10-07T01:33:20.197Z,168264.19
2023-10-07T01:43:25.872Z,168266.84
2023-10-07T01:53:29.210Z,168280.13
2023-10-07T02:03:34.215Z,168317.34
2023-10-07T02:13:37.270Z,168354.53
2023-10-07T02:23:44.093Z,168385.09
2023-10-07T02:33:47.888Z,168414.38
2023-10-07T02:43:52.312Z,168455.53
2023-10-07T02:54:01.209Z,168500.69
2023-10-07T03:04:12.273Z,168527.28
2023-10-07T03:14:25.129Z,168553.88
2023-10-07T03:24:42.444Z,168583.13
2023-10-07T03:34:47.144Z,168604.38
2023-10-07T03:44:51.846Z,168620.44
2023-10-07T03:54:55.217Z,168645.69
2023-10-07T04:05:11.667Z,168655.00
2023-10-07T04:15:18.313Z,168664.25
2023-10-07T04:25:23.535Z,168662.97
2023-10-07T04:35:32.263Z,168681.53
2023-10-07T04:45:50.522Z,168684.22
2023-10-07T04:56:02.954Z,168701.50
2023-10-07T05:06:07.769Z,168700.19
2023-10-07T05:16:10.786Z,168697.53
2023-10-07T05:26:18.673Z,168702.81
2023-10-07T05:36:31.069Z,168689.50
2023-10-07T05:46:36.378Z,168713.47
2023-10-07T05:56:40.754Z,168701.50
2023-10-07T06:06:45.120Z,168718.81
2023-10-07T06:16:48.142Z,168728.06
2023-10-07T06:26:54.852Z,168738.72
2023-10-07T06:36:58.139Z,168748.03
2023-10-07T06:47:03.958Z,168761.34
2023-10-07T06:57:11.360Z,168803.91
2023-10-07T07:07:17.598Z,168826.53
2023-10-07T07:17:44.903Z,168878.41
2023-10-07T07:27:49.983Z,168934.31
2023-10-07T07:37:52.977Z,168966.22
2023-10-07T07:47:58.126Z,168979.53
2023-10-07T07:58:03.943Z,169023.44
2023-10-07T08:08:19.961Z,169022.09
2023-10-07T08:18:30.325Z,169059.34
2023-10-07T08:28:43.797Z,169108.59
2023-10-07T08:38:51.330Z,169147.19
2023-10-07T08:48:58.809Z,169205.78
2023-10-07T08:59:02.187Z,169257.72
2023-10-07T09:09:07.932Z,169317.63
2023-10-07T09:19:21.184Z,169384.22
2023-10-07T09:29:28.700Z,169438.84
2023-10-07T09:39:35.783Z,169496.13
2023-10-07T09:49:40.241Z,169564.06
2023-10-07T09:59:59.060Z,169609.38
2023-10-07T10:10:08.655Z,169653.34
2023-10-07T10:20:14.496Z,169730.63
2023-10-07T10:30:25.577Z,169823.97
2023-10-07T10:40:32.878Z,169876.00
2023-10-07T10:50:37.313Z,169918.66
2023-10-07T11:00:50.170Z,169989.28
2023-10-07T11:10:58.491Z,170029.28
2023-10-07T11:21:03.534Z,170077.31
2023-10-07T11:31:08.368Z,170176.06
2023-10-07T11:41:12.235Z,170220.06
2023-10-07T11:51:16.714Z,170274.75
2023-10-07T12:01:28.618Z,170332.19
2023-10-07T12:11:36.583Z,170413.56
2023-10-07T12:21:42.441Z,170489.63
2023-10-07T12:31:54.225Z,170549.75
2023-10-07T12:42:00.274Z,170545.75
2023-10-07T12:52:10.425Z,170531.09
2023-10-07T13:02:19.667Z,170560.44
2023-10-07T13:12:25.587Z,170591.16
2023-10-07T13:22:36.637Z,170653.88
2023-10-07T13:32:45.404Z,170672.59
2023-10-07T13:42:49.665Z,170702.00
2023-10-07T13:53:13.593Z,170677.94
2023-10-07T14:03:22.056Z,170708.66
2023-10-07T14:13:27.875Z,170693.94
2023-10-07T14:23:32.093Z,170691.25
2023-10-07T14:33:36.697Z,170696.59
2023-10-07T14:43:39.928Z,170719.38
2023-10-07T14:53:45.873Z,170708.66
2023-10-07T15:03:49.156Z,170667.22
2023-10-07T15:13:57.086Z,170647.22
2023-10-07T15:24:01.581Z,170608.50
2023-10-07T15:34:08.834Z,170547.09
2023-10-07T15:44:11.743Z,170498.97
2023-10-07T15:54:16.502Z,170461.63
2023-10-07T16:04:19.677Z,170410.94
2023-10-07T16:14:25.087Z,170360.19
2023-10-07T16:24:28.091Z,170324.19
2023-10-07T16:34:32.245Z,170305.50
2023-10-07T16:44:35.780Z,170248.06
2023-10-07T16:54:40.012Z,170169.41
2023-10-07T17:04:42.802Z,170092.00
2023-10-07T17:14:46.958Z,170035.94
2023-10-07T17:24:51.915Z,169959.97
2023-10-07T17:34:56.260Z,169885.28
2023-10-07T17:44:59.087Z,169823.97
2023-10-07T17:55:04.725Z,169765.28
2023-10-07T18:05:07.809Z,169720.00
2023-10-07T18:15:12.964Z,169676.03
2023-10-07T18:25:15.719Z,169635.97
2023-10-07T18:35:27.849Z,169596.06
2023-10-07T18:45:33.230Z,169581.38
2023-10-07T18:55:37.505Z,169561.41
2023-10-07T19:05:40.330Z,169570.75
2023-10-07T19:15:44.898Z,169574.75
2023-10-07T19:25:48.167Z,169556.06
2023-10-07T19:35:52.395Z,169528.06
2023-10-07T19:45:55.314Z,169500.13
2023-10-07T19:55:59.887Z,169476.16
2023-10-07T20:06:10.327Z,169458.84
2023-10-07T20:16:16.680Z,169440.19
2023-10-07T20:26:21.098Z,169406.91
2023-10-07T20:36:25.406Z,169400.19
2023-10-07T20:46:28.287Z,169364.25
2023-10-07T20:56:32.488Z,169362.91
2023-10-07T21:06:35.776Z,169353.56
2023-10-07T21:16:40.794Z,169334.94
2023-10-07T21:26:43.863Z,169340.25
2023-10-07T21:36:48.069Z,169338.91
2023-10-07T21:46:52.206Z,169349.59
2023-10-07T21:56:56.419Z,169334.94
2023-10-07T22:06:59.172Z,169342.91
2023-10-07T22:17:06.602Z,169354.94
2023-10-07T22:27:09.567Z,169345.59
2023-10-07T22:37:18.895Z,169308.34
2023-10-07T22:47:24.930Z,169288.34
2023-10-07T22:57:31.237Z,169273.72
2023-10-07T23:07:43.894Z,169212.47
2023-10-07T23:17:52.857Z,169187.19
2023-10-07T23:27:56.002Z,169141.84
2023-10-07T23:38:10.028Z,169131.25
2023-10-07T23:48:19.523Z,169104.59
2023-10-07T23:58:25.670Z,169076.63
